createdAt,value
2022-10-17T07:10:12.883Z,9.93
2022-10-17T07:11:15.347Z,9.32
2022-10-17T07:12:17.847Z,8.29
2022-10-17T07:13:20.358Z,7.93
2022-10-17T07:14:22.721Z,23.29
2022-10-17T07:15:25.249Z,18.69
2022-10-17T07:16:27.711Z,23.17
2022-10-17T07:17:30.398Z,15.10
2022-10-17T07:18:33.134Z,8.16
2022-10-17T07:19:35.508Z,10.38
2022-10-17T07:20:38.021Z,9.76
2022-10-17T07:21:40.441Z,9.01
2022-10-17T07:22:42.803Z,16.81
2022-10-17T07:23:45.228Z,10.00
2022-10-17T07:24:47.860Z,9.78
2022-10-17T07:25:50.338Z,6.01
2022-10-17T07:26:52.701Z,6.85
2022-10-17T07:27:55.176Z,10.25
2022-10-17T07:28:57.696Z,8.14
2022-10-17T07:30:00.406Z,6.01
2022-10-17T07:31:02.827Z,21.97
2022-10-17T07:32:05.198Z,12.00
2022-10-17T07:33:07.593Z,5.27
2022-10-17T07:34:10.027Z,5.77
2022-10-17T07:35:12.388Z,5.33
2022-10-17T07:36:14.888Z,9.06
2022-10-17T07:37:17.251Z,6.68
2022-10-17T07:38:21.134Z,7.79
2022-10-17T07:39:23.589Z,11.12
2022-10-17T07:40:25.974Z,17.24
2022-10-17T07:41:28.374Z,15.21
2022-10-17T07:42:30.893Z,13.94
2022-10-17T07:43:33.495Z,15.42
2022-10-17T07:44:35.753Z,13.15
2022-10-17T07:45:38.226Z,6.04
2022-10-17T07:46:40.640Z,6.41
2022-10-17T07:47:42.898Z,6.65
2022-10-17T07:48:45.278Z,6.01
2022-10-17T07:49:47.727Z,8.22
2022-10-17T07:50:50.100Z,8.65
2022-10-17T07:51:52.496Z,5.77
2022-10-17T07:52:54.961Z,8.79
2022-10-17T07:53:57.326Z,8.16
2022-10-17T07:54:59.695Z,11.23
2022-10-17T07:56:02.057Z,7.51
2022-10-17T07:57:04.458Z,20.83
2022-10-17T07:58:06.918Z,15.81
2022-10-17T07:59:09.717Z,16.30
2022-10-17T08:00:12.530Z,7.59
2022-10-17T08:01:15.809Z,6.41
2022-10-17T08:02:18.801Z,7.18
2022-10-17T08:03:21.212Z,8.57
2022-10-17T08:04:23.695Z,18.66
2022-10-17T08:05:26.122Z,7.73
2022-10-17T08:06:28.483Z,4.17
2022-10-17T08:07:30.955Z,5.68
2022-10-17T08:08:33.439Z,6.42
2022-10-17T08:09:35.837Z,7.41
2022-10-17T08:10:38.289Z,4.15
2022-10-17T08:11:40.649Z,7.28
2022-10-17T08:12:43.173Z,5.42
2022-10-17T08:13:45.536Z,7.98
2022-10-17T08:14:47.904Z,4.06
2022-10-17T08:15:50.275Z,6.06
2022-10-17T08:16:52.727Z,6.14
2022-10-17T08:17:55.126Z,4.36
2022-10-17T08:18:57.522Z,9.20
2022-10-17T08:19:59.949Z,13.67
2022-10-17T08:21:02.413Z,25.38
2022-10-17T08:22:04.877Z,20.36
2022-10-17T08:23:07.259Z,26.45
2022-10-17T08:24:09.631Z,15.67
2022-10-17T08:25:11.980Z,22.53
2022-10-17T08:26:14.441Z,44.51
2022-10-17T08:27:16.808Z,10.89
2022-10-17T08:28:19.231Z,13.63
2022-10-17T08:29:21.588Z,9.03
2022-10-17T08:30:23.943Z,12.97
2022-10-17T08:31:26.308Z,11.25
2022-10-17T08:32:29.100Z,34.67
2022-10-17T08:33:31.884Z,15.14
2022-10-17T08:34:34.254Z,37.37
2022-10-17T08:35:36.608Z,55.95
2022-10-17T08:36:38.974Z,45.55
2022-10-17T08:37:41.345Z,44.65
2022-10-17T08:38:43.959Z,11.75
2022-10-17T08:39:46.599Z,15.46
2022-10-17T08:40:49.078Z,86.78
2022-10-17T08:41:51.527Z,83.99
2022-10-17T08:42:53.883Z,60.51
2022-10-17T08:43:56.278Z,10.47
2022-10-17T08:44:58.637Z,10.47
2022-10-17T08:46:01.011Z,5.85
2022-10-17T08:47:04.832Z,8.43
2022-10-17T08:48:07.253Z,6.54
2022-10-17T08:49:12.153Z,15.43
2022-10-17T08:50:14.013Z,21.95
2022-10-17T08:51:16.373Z,9.67
2022-10-17T08:52:18.736Z,16.75
2022-10-17T08:53:21.097Z,84.86
2022-10-17T08:54:23.586Z,12.05
2022-10-17T08:55:26.056Z,23.95
2022-10-17T08:56:47.656Z,48.70
2022-10-17T08:57:33.229Z,79.48
2022-10-17T08:58:35.878Z,35.93
2022-10-17T08:59:38.335Z,7.57
2022-10-17T09:00:40.763Z,8.65
2022-10-17T09:01:43.125Z,6.79
2022-10-17T09:02:45.520Z,5.81
2022-10-17T09:03:47.952Z,8.55
2022-10-17T09:04:50.493Z,7.80
2022-10-17T09:05:52.938Z,35.02
2022-10-17T09:06:55.305Z,60.07
2022-10-17T09:07:57.773Z,10.34
2022-10-17T09:09:00.225Z,28.69
2022-10-17T09:10:02.714Z,11.71
2022-10-17T09:11:05.068Z,7.14
2022-10-17T09:12:07.324Z,5.41
2022-10-17T09:13:09.690Z,8.57
2022-10-17T09:14:12.046Z,5.67
2022-10-17T09:15:14.714Z,6.44
2022-10-17T09:16:17.275Z,5.97
2022-10-17T09:17:19.634Z,11.61
2022-10-17T09:18:22.237Z,6.25
2022-10-17T09:19:24.961Z,7.48
2022-10-17T09:20:27.336Z,8.44
2022-10-17T09:21:29.699Z,9.33
2022-10-17T09:22:32.361Z,9.34
2022-10-17T09:23:36.186Z,22.05
2022-10-17T09:24:38.986Z,15.24
2022-10-17T09:25:41.258Z,8.37
2022-10-17T09:26:43.615Z,15.38
2022-10-17T09:27:45.975Z,10.25
2022-10-17T09:28:48.348Z,17.14
2022-10-17T09:29:50.777Z,16.37
2022-10-17T09:30:53.180Z,9.26
2022-10-17T09:31:55.439Z,10.34
2022-10-17T09:32:57.781Z,9.95
2022-10-17T09:34:00.142Z,23.47
2022-10-17T09:35:02.396Z,45.26
2022-10-17T09:36:04.868Z,32.55
2022-10-17T09:37:07.313Z,6.95
2022-10-17T09:38:09.697Z,6.84
2022-10-17T09:39:12.138Z,64.58
2022-10-17T09:40:14.589Z,21.95
2022-10-17T09:41:43.082Z,64.35
2022-10-17T09:42:21.258Z,28.04
2022-10-17T09:43:23.612Z,10.96
2022-10-17T09:44:25.871Z,11.58
2022-10-17T09:45:28.320Z,6.09
2022-10-17T09:46:30.700Z,11.25
2022-10-17T09:47:33.356Z,10.73
2022-10-17T09:48:35.698Z,7.26
2022-10-17T09:49:38.038Z,4.77
2022-10-17T09:50:40.413Z,5.16
2022-10-17T09:51:42.894Z,8.23
2022-10-17T09:52:45.445Z,6.49
2022-10-17T09:53:47.811Z,7.85
2022-10-17T09:54:50.157Z,6.83
2022-10-17T09:55:52.498Z,7.46
2022-10-17T09:56:54.883Z,6.61
2022-10-17T09:57:57.136Z,6.11
2022-10-17T09:58:59.491Z,8.28
2022-10-17T10:00:01.966Z,7.30
2022-10-17T10:01:04.608Z,8.87
2022-10-17T10:02:07.067Z,7.23
2022-10-17T10:03:09.427Z,9.77
2022-10-17T10:04:11.764Z,16.18
2022-10-17T10:05:14.135Z,6.87
2022-10-17T10:06:16.483Z,7.24
2022-10-17T10:07:18.873Z,5.79
2022-10-17T10:08:21.232Z,8.36
2022-10-17T10:09:23.594Z,6.19
2022-10-17T10:10:27.800Z,6.85
2022-10-17T10:11:30.303Z,7.51
2022-10-17T10:12:32.916Z,8.73
2022-10-17T10:13:35.756Z,6.92
2022-10-17T10:14:38.104Z,6.85
2022-10-17T10:15:40.453Z,24.87
2022-10-17T10:16:42.799Z,19.29
2022-10-17T10:17:46.567Z,8.93
2022-10-17T10:18:50.868Z,6.19
2022-10-17T10:19:53.194Z,8.18
2022-10-17T10:20:55.545Z,9.67
2022-10-17T10:21:57.887Z,6.47
2022-10-17T10:23:00.278Z,6.18
2022-10-17T10:24:02.626Z,6.93
2022-10-17T10:25:04.971Z,6.85
2022-10-17T10:26:07.324Z,20.97
2022-10-17T10:27:09.766Z,4.94
2022-10-17T10:28:12.147Z,3.87
2022-10-17T10:29:14.496Z,4.54
2022-10-17T10:30:16.837Z,6.59
2022-10-17T10:31:19.467Z,14.71
2022-10-17T10:32:21.849Z,8.84
2022-10-17T10:33:24.242Z,9.47
2022-10-17T10:34:26.600Z,5.55
2022-10-17T10:35:28.957Z,5.19
2022-10-17T10:36:31.498Z,5.40
2022-10-17T10:37:34.083Z,6.65
2022-10-17T10:38:36.548Z,7.18
2022-10-17T10:39:38.899Z,9.47
2022-10-17T10:40:41.249Z,6.71
2022-10-17T10:41:43.775Z,6.38
2022-10-17T10:42:46.138Z,12.09
2022-10-17T10:43:48.508Z,17.07
2022-10-17T10:44:50.861Z,16.13
2022-10-17T10:45:53.309Z,5.51
2022-10-17T10:46:55.745Z,5.96
2022-10-17T10:47:58.110Z,5.87
2022-10-17T10:49:00.502Z,6.35
2022-10-17T10:50:02.936Z,7.35
2022-10-17T10:51:05.300Z,6.20
2022-10-17T10:52:07.646Z,4.37
2022-10-17T10:53:10.044Z,5.67
2022-10-17T10:54:12.504Z,15.67
2022-10-17T10:55:14.851Z,6.80
2022-10-17T10:56:17.197Z,6.69
2022-10-17T10:57:19.547Z,4.69
2022-10-17T10:58:21.891Z,4.62
2022-10-17T10:59:24.296Z,5.56
2022-10-17T11:00:26.702Z,7.20
2022-10-17T11:01:29.294Z,9.09
2022-10-17T11:02:31.647Z,7.28
2022-10-17T11:03:34.042Z,39.47
2022-10-17T11:04:36.501Z,16.64
2022-10-17T11:05:38.844Z,3.75
2022-10-17T11:06:41.196Z,22.60
2022-10-17T11:07:43.540Z,25.97
2022-10-17T11:08:45.892Z,11.67
2022-10-17T11:09:48.275Z,11.87
2022-10-17T11:10:50.625Z,3.11
2022-10-17T11:11:52.977Z,3.76
2022-10-17T11:12:55.325Z,4.09
2022-10-17T11:13:57.678Z,4.73
2022-10-17T11:15:00.152Z,3.31
2022-10-17T11:16:05.065Z,5.33
2022-10-17T11:17:07.421Z,5.79
2022-10-17T11:18:09.683Z,5.07
2022-10-17T11:19:12.041Z,5.71
2022-10-17T11:20:14.642Z,4.29
2022-10-17T11:21:17.005Z,4.83
2022-10-17T11:22:19.456Z,5.41
2022-10-17T11:23:21.800Z,11.43
2022-10-17T11:24:24.151Z,4.15
2022-10-17T11:25:26.553Z,10.65
2022-10-17T11:26:28.902Z,4.60
2022-10-17T11:27:31.242Z,5.95
2022-10-17T11:28:33.630Z,5.14
2022-10-17T11:29:36.033Z,8.13
2022-10-17T11:30:38.465Z,3.92
2022-10-17T11:31:40.868Z,28.83
2022-10-17T11:32:43.214Z,6.37
2022-10-17T11:33:45.869Z,4.41
2022-10-17T11:34:48.126Z,4.15
2022-10-17T11:35:50.521Z,5.06
2022-10-17T11:36:52.985Z,4.82
2022-10-17T11:37:55.332Z,4.81
2022-10-17T11:38:57.998Z,11.05
2022-10-17T11:40:00.445Z,7.79
2022-10-17T11:41:03.446Z,6.14
2022-10-17T11:42:05.799Z,9.47
2022-10-17T11:43:08.168Z,5.35
2022-10-17T11:44:10.619Z,6.11
2022-10-17T11:45:12.973Z,4.06
2022-10-17T11:46:15.868Z,5.35
2022-10-17T11:47:18.383Z,5.26
2022-10-17T11:48:21.179Z,7.14
2022-10-17T11:49:23.760Z,3.81
2022-10-17T11:52:55.372Z,7.47
2022-10-17T11:53:39.041Z,3.82
2022-10-17T11:54:41.416Z,3.49
2022-10-17T11:55:44.775Z,4.96
2022-10-17T11:56:47.170Z,5.24
2022-10-17T11:57:49.745Z,9.39
2022-10-17T11:58:52.393Z,5.49
2022-10-17T11:59:54.786Z,4.30
2022-10-17T12:00:57.218Z,4.97
2022-10-17T12:01:59.689Z,7.25
2022-10-17T12:03:02.069Z,8.38
2022-10-17T12:04:04.517Z,5.95
2022-10-17T12:05:07.194Z,8.58
2022-10-17T12:06:11.117Z,7.99
2022-10-17T12:07:13.496Z,4.61
2022-10-17T12:08:15.948Z,4.26
2022-10-17T12:09:18.299Z,8.83
2022-10-17T12:10:20.655Z,4.41
2022-10-17T12:11:23.003Z,5.81
2022-10-17T12:12:25.401Z,6.24
2022-10-17T12:13:27.750Z,6.50
2022-10-17T12:14:30.142Z,5.86
2022-10-17T12:15:32.965Z,6.12
2022-10-17T12:16:35.380Z,12.97
2022-10-17T12:17:37.853Z,10.86
2022-10-17T12:18:40.106Z,17.57
2022-10-17T12:19:42.462Z,7.98
2022-10-17T12:20:44.913Z,10.77
2022-10-17T12:21:47.265Z,8.25
2022-10-17T12:22:49.981Z,4.75
2022-10-17T12:23:52.334Z,7.22
2022-10-17T12:24:54.688Z,7.75
2022-10-17T12:25:59.768Z,4.87
2022-10-17T12:27:01.313Z,3.29
2022-10-17T12:28:03.811Z,7.68
2022-10-17T12:29:06.183Z,4.90
2022-10-17T12:30:08.815Z,7.71
2022-10-17T12:31:11.073Z,7.49
2022-10-17T12:32:13.426Z,15.61
2022-10-17T12:33:15.824Z,39.36
2022-10-17T12:34:18.183Z,8.60
2022-10-17T12:35:20.528Z,18.61
2022-10-17T12:36:23.106Z,9.02
2022-10-17T12:37:25.485Z,5.35
2022-10-17T12:38:27.802Z,8.81
2022-10-17T12:39:30.063Z,5.79
2022-10-17T12:40:32.507Z,4.99
2022-10-17T12:41:34.770Z,3.93
2022-10-17T12:42:37.028Z,3.67
2022-10-17T12:43:42.722Z,5.22
2022-10-17T12:44:45.715Z,12.71
2022-10-17T12:45:47.859Z,5.28
2022-10-17T12:46:50.331Z,10.11
2022-10-17T12:47:52.764Z,6.47
2022-10-17T12:48:55.975Z,11.74
2022-10-17T12:49:58.321Z,8.26
2022-10-17T12:51:17.756Z,8.43
2022-10-17T12:52:04.979Z,5.17
2022-10-17T12:53:08.399Z,3.90
2022-10-17T12:54:11.479Z,8.49
2022-10-17T12:55:15.654Z,22.70
2022-10-17T12:56:18.097Z,11.28
2022-10-17T12:57:20.460Z,12.35
2022-10-17T12:58:23.652Z,6.06
2022-10-17T12:59:26.067Z,5.09
2022-10-17T13:00:28.558Z,3.82
2022-10-17T13:01:32.346Z,8.57
2022-10-17T13:02:35.548Z,9.14
2022-10-17T13:03:37.894Z,6.82
2022-10-17T13:04:40.277Z,4.35
2022-10-17T13:05:43.252Z,4.25
2022-10-17T13:06:45.717Z,5.91
2022-10-17T13:07:48.253Z,11.11
2022-10-17T13:08:54.543Z,10.21
2022-10-17T13:09:55.066Z,9.82
2022-10-17T13:10:57.442Z,4.31
2022-10-17T13:11:59.794Z,4.76
2022-10-17T13:13:02.264Z,5.88
2022-10-17T13:14:04.711Z,5.55
2022-10-17T13:15:07.106Z,4.68
2022-10-17T13:16:09.482Z,5.75
2022-10-17T13:17:11.848Z,4.68
2022-10-17T13:18:14.205Z,6.78
2022-10-17T13:19:16.652Z,5.31
2022-10-17T13:20:23.525Z,5.05
2022-10-17T13:21:27.715Z,7.54
2022-10-17T13:22:30.613Z,4.26
2022-10-17T13:23:33.922Z,6.19
2022-10-17T13:24:36.275Z,5.87
2022-10-17T13:25:39.620Z,5.20
2022-10-17T13:26:42.229Z,12.39
2022-10-17T13:27:44.584Z,6.44
2022-10-17T13:28:47.029Z,8.79
2022-10-17T13:29:49.583Z,6.90
2022-10-17T13:30:53.692Z,4.69
2022-10-17T13:31:56.251Z,5.42
2022-10-17T13:32:58.624Z,8.96
2022-10-17T13:34:01.080Z,6.69
2022-10-17T13:35:03.457Z,12.75
2022-10-17T13:36:05.860Z,19.50
2022-10-17T13:37:08.225Z,20.93
2022-10-17T13:38:10.810Z,8.97
2022-10-17T13:39:16.882Z,11.17
2022-10-17T13:40:40.789Z,6.66
2022-10-17T13:41:35.432Z,8.45
2022-10-17T13:42:26.217Z,15.54
2022-10-17T13:43:28.920Z,5.92
2022-10-17T13:44:31.272Z,9.18
2022-10-17T13:45:33.688Z,4.82
2022-10-17T13:46:38.377Z,12.94
2022-10-17T13:47:40.428Z,7.36
2022-10-17T13:48:43.148Z,8.01
2022-10-17T13:49:45.692Z,6.06
2022-10-17T13:50:48.160Z,7.03
2022-10-17T13:51:50.628Z,8.73
2022-10-17T13:52:52.987Z,12.18
2022-10-17T13:53:55.343Z,8.98
2022-10-17T13:54:57.724Z,6.37
2022-10-17T13:56:22.880Z,5.13
2022-10-17T13:57:04.492Z,6.74
2022-10-17T13:58:06.946Z,5.45
2022-10-17T13:59:09.303Z,4.80
2022-10-17T14:00:12.502Z,7.81
2022-10-17T14:01:15.205Z,7.94
2022-10-17T14:02:17.835Z,16.25
2022-10-17T14:03:20.200Z,10.21
2022-10-17T14:04:22.650Z,8.82
2022-10-17T14:05:25.021Z,6.87
2022-10-17T14:06:27.471Z,9.03
2022-10-17T14:07:41.559Z,8.96
2022-10-17T14:08:34.151Z,22.55
2022-10-17T14:09:36.623Z,18.54
2022-10-17T14:10:39.079Z,22.03
2022-10-17T14:11:41.441Z,15.35
2022-10-17T14:12:45.605Z,15.37
2022-10-17T14:13:48.206Z,16.55
2022-10-17T14:15:54.876Z,11.58
2022-10-17T14:16:57.330Z,43.11
2022-10-17T14:18:01.486Z,22.28
2022-10-17T14:19:03.978Z,19.59
2022-10-17T14:20:34.476Z,21.89
2022-10-17T14:22:15.185Z,21.35
2022-10-17T14:23:22.749Z,23.04
2022-10-17T14:24:21.875Z,39.76
2022-10-17T14:25:24.288Z,28.41
2022-10-17T14:26:26.771Z,18.73
2022-10-17T14:27:29.636Z,22.84
2022-10-17T14:28:32.409Z,22.14
2022-10-17T14:29:34.924Z,22.50
2022-10-17T14:30:56.891Z,22.35
2022-10-17T14:31:41.680Z,23.76
2022-10-17T14:32:44.177Z,20.59
2022-10-17T14:33:50.572Z,21.55
2022-10-17T14:34:50.968Z,18.44
2022-10-17T14:35:53.323Z,19.86
2022-10-17T14:36:55.772Z,20.71
2022-10-17T14:37:58.141Z,26.59
2022-10-17T14:39:01.777Z,21.17
2022-10-17T14:40:04.454Z,19.75
2022-10-17T14:41:40.797Z,21.91
2022-10-17T14:42:11.190Z,25.61
2022-10-17T14:43:13.560Z,29.28
2022-10-17T14:44:16.128Z,27.22
2022-10-17T14:45:23.406Z,18.63
2022-10-17T14:46:22.881Z,20.76
2022-10-17T14:47:52.010Z,21.00
2022-10-17T14:48:29.634Z,23.25
2022-10-17T14:49:32.052Z,28.16
2022-10-17T14:50:34.582Z,34.90
2022-10-17T14:51:50.174Z,37.90
2022-10-17T14:52:41.464Z,26.63
2022-10-17T14:53:43.930Z,31.78
2022-10-17T14:54:46.350Z,29.93
2022-10-17T14:55:48.813Z,36.91
2022-10-17T14:56:51.277Z,36.15
2022-10-17T14:57:53.640Z,31.75
2022-10-17T14:58:56.013Z,25.47
2022-10-17T14:59:58.489Z,24.91
2022-10-17T15:02:10.508Z,30.84
2022-10-17T15:03:12.895Z,36.22
2022-10-17T15:04:15.347Z,34.62
2022-10-17T15:05:17.797Z,28.51
2022-10-17T15:06:20.366Z,30.09
2022-10-17T15:07:22.917Z,37.83
2022-10-17T15:08:25.399Z,29.86
2022-10-17T15:09:27.862Z,28.70
2022-10-17T15:10:30.353Z,28.82
2022-10-17T15:11:32.732Z,45.52
2022-10-17T15:12:35.206Z,37.29
2022-10-17T15:13:42.140Z,34.59
2022-10-17T15:14:41.999Z,35.67
2022-10-17T15:15:44.495Z,32.02
2022-10-17T15:16:47.008Z,35.88
2022-10-17T15:17:49.418Z,38.65
2022-10-17T15:18:51.847Z,37.79
2022-10-17T15:19:54.210Z,26.99
2022-10-17T15:21:05.092Z,35.09
2022-10-17T15:22:00.926Z,32.96
2022-10-17T15:23:03.398Z,41.99
2022-10-17T15:24:05.934Z,31.24
2022-10-17T15:25:08.395Z,27.47
2022-10-17T15:26:11.125Z,42.59
2022-10-17T15:27:13.665Z,48.35
2022-10-17T15:28:16.134Z,41.41
2022-10-17T15:29:18.531Z,57.87
2022-10-17T15:30:21.787Z,76.78
2022-10-17T15:31:24.407Z,75.46
2022-10-17T15:32:26.777Z,55.78
2022-10-17T15:33:29.139Z,60.11
2022-10-17T15:34:31.503Z,68.19
2022-10-17T15:35:33.880Z,59.10
2022-10-17T15:36:36.383Z,57.41
2022-10-17T15:37:38.863Z,64.52
2022-10-17T15:38:41.231Z,72.75
2022-10-17T15:39:43.594Z,104.86
2022-10-17T15:40:46.056Z,113.45
2022-10-17T15:41:48.619Z,124.04
2022-10-17T15:42:50.996Z,103.53
2022-10-17T15:43:53.472Z,100.26
2022-10-17T15:44:55.951Z,84.46
2022-10-17T15:45:58.374Z,77.93
2022-10-17T15:47:00.824Z,74.57
2022-10-17T15:48:03.265Z,86.58
2022-10-17T15:49:05.638Z,73.71
2022-10-17T15:50:08.423Z,81.67
2022-10-17T15:51:10.917Z,151.20
2022-10-17T15:52:13.416Z,220.39
2022-10-17T15:53:15.896Z,192.26
2022-10-17T15:54:18.302Z,165.43
2022-10-17T15:55:21.712Z,135.00
2022-10-17T15:56:24.252Z,144.69
2022-10-17T15:57:26.721Z,108.94
2022-10-17T15:58:29.210Z,101.84
2022-10-17T15:59:31.661Z,78.84
2022-10-17T16:00:34.180Z,75.47
2022-10-17T16:01:36.604Z,66.13
2022-10-17T16:02:39.098Z,67.36
2022-10-17T16:03:41.462Z,126.47
2022-10-17T16:04:43.931Z,114.69
2022-10-17T16:05:46.434Z,188.47
2022-10-17T16:06:48.930Z,195.11
2022-10-17T16:07:51.352Z,217.20
2022-10-17T16:08:53.811Z,163.55
2022-10-17T16:09:56.276Z,130.79
2022-10-17T16:10:58.664Z,169.22
2022-10-17T16:12:01.018Z,188.19
2022-10-17T16:13:03.422Z,318.30
2022-10-17T16:14:05.954Z,280.27
2022-10-17T16:15:08.357Z,315.15
2022-10-17T16:16:10.993Z,309.21
2022-10-17T16:17:13.709Z,353.59
2022-10-17T16:18:16.749Z,317.71
2022-10-17T16:19:19.352Z,335.51
2022-10-17T16:20:21.812Z,308.35
2022-10-17T16:21:24.294Z,251.16
2022-10-17T16:22:26.861Z,253.11
2022-10-17T16:23:29.683Z,221.08
2022-10-17T16:24:32.187Z,211.70
2022-10-17T16:25:34.629Z,215.02
2022-10-17T16:26:37.126Z,196.43
2022-10-17T16:27:39.564Z,193.91
2022-10-17T16:28:46.018Z,203.94
2022-10-17T16:29:46.361Z,156.42
2022-10-17T16:30:48.720Z,110.83
2022-10-17T16:31:51.098Z,88.73
2022-10-17T16:32:53.671Z,81.46
2022-10-17T16:33:56.184Z,79.17
2022-10-17T16:34:58.674Z,67.95
2022-10-17T16:36:01.062Z,86.98
2022-10-17T16:37:03.426Z,64.77
2022-10-17T16:38:05.937Z,68.66
2022-10-17T16:39:08.448Z,79.62
2022-10-17T16:40:11.422Z,87.36
2022-10-17T16:41:13.917Z,74.87
2022-10-17T16:42:16.464Z,79.28
2022-10-17T16:43:18.892Z,79.35
2022-10-17T16:44:21.345Z,80.34
2022-10-17T16:45:23.710Z,70.13
2022-10-17T16:46:26.175Z,77.68
2022-10-17T16:47:28.626Z,69.06
2022-10-17T16:48:31.099Z,85.16
2022-10-17T16:49:34.355Z,78.05
2022-10-17T16:50:36.823Z,201.38
2022-10-17T16:51:39.379Z,85.43
2022-10-17T16:52:41.842Z,73.25
2022-10-17T16:53:44.560Z,63.17
2022-10-17T16:54:47.241Z,55.81
2022-10-17T16:55:49.599Z,48.60
2022-10-17T16:56:51.962Z,44.21
2022-10-17T16:57:54.341Z,75.85
2022-10-17T16:58:56.798Z,80.11
2022-10-17T16:59:59.237Z,68.51
2022-10-17T17:01:01.806Z,46.74
2022-10-17T17:02:04.283Z,46.09
2022-10-17T17:03:06.870Z,49.84
2022-10-17T17:04:09.315Z,60.72
2022-10-17T17:05:11.835Z,47.52
2022-10-17T17:06:14.775Z,48.96
2022-10-17T17:07:17.474Z,41.23
2022-10-17T17:08:19.929Z,51.70
2022-10-17T17:09:22.415Z,39.22
2022-10-17T17:10:24.812Z,46.51
2022-10-17T17:11:27.292Z,42.44
2022-10-17T17:12:29.992Z,45.21
2022-10-17T17:13:32.383Z,42.49
2022-10-17T17:14:34.815Z,35.51
2022-10-17T17:15:37.237Z,46.11
2022-10-17T17:16:39.678Z,45.77
2022-10-17T17:17:51.262Z,56.05
2022-10-17T17:18:46.577Z,62.76
2022-10-17T17:19:48.938Z,63.51
2022-10-17T17:20:52.646Z,78.01
2022-10-17T17:21:55.406Z,72.15
2022-10-17T17:23:00.022Z,66.27
2022-10-17T17:24:02.428Z,61.36
2022-10-17T17:25:04.788Z,68.73
2022-10-17T17:26:07.286Z,61.91
2022-10-17T17:27:11.362Z,76.31
2022-10-17T17:28:13.987Z,70.93
2022-10-17T17:29:16.501Z,62.17
2022-10-17T17:30:19.310Z,68.47
2022-10-17T17:31:21.897Z,72.50
2022-10-17T17:32:24.256Z,64.00
2022-10-17T17:33:26.617Z,67.11
2022-10-17T17:34:28.997Z,72.97
2022-10-17T17:35:31.452Z,68.72
2022-10-17T17:36:33.852Z,57.99
2022-10-17T17:37:36.257Z,59.81
2022-10-17T17:38:38.713Z,65.73
2022-10-17T17:39:41.097Z,54.47
2022-10-17T17:40:46.888Z,76.81
2022-10-17T17:41:47.962Z,62.54
2022-10-17T17:42:50.580Z,62.34
2022-10-17T17:43:53.336Z,57.73
2022-10-17T17:44:55.695Z,55.82
2022-10-17T17:45:58.148Z,56.13
2022-10-17T17:47:00.573Z,60.37
2022-10-17T17:48:03.060Z,53.78
2022-10-17T17:49:05.682Z,53.01
2022-10-17T17:50:08.433Z,50.11
2022-10-17T17:51:10.881Z,41.34
2022-10-17T17:52:13.272Z,46.59
2022-10-17T17:53:15.721Z,39.32
2022-10-17T17:54:18.088Z,36.23
2022-10-17T17:55:20.445Z,29.38
2022-10-17T17:56:22.811Z,27.63
2022-10-17T17:57:25.254Z,26.63
2022-10-17T17:58:27.700Z,21.63
2022-10-17T17:59:30.148Z,15.17
2022-10-17T18:00:32.504Z,22.27
2022-10-17T18:01:34.931Z,20.95
2022-10-17T18:02:40.766Z,15.00
2022-10-17T18:03:41.959Z,12.20
2022-10-17T18:04:44.320Z,10.51
2022-10-17T18:05:46.770Z,17.38
2022-10-17T18:06:49.128Z,16.60
2022-10-17T18:07:51.558Z,22.15
2022-10-17T18:08:54.041Z,15.84
2022-10-17T18:09:56.466Z,17.99
2022-10-17T18:10:58.973Z,16.98
2022-10-17T18:12:01.350Z,21.19
2022-10-17T18:13:03.749Z,15.49
2022-10-17T18:14:06.100Z,16.11
2022-10-17T18:15:08.460Z,14.17
2022-10-17T18:16:11.423Z,21.82
2022-10-17T18:17:13.795Z,19.35
2022-10-17T18:18:16.290Z,19.41
2022-10-17T18:19:18.765Z,19.91
2022-10-17T18:20:21.185Z,18.00
2022-10-17T18:21:23.536Z,23.13
2022-10-17T18:22:25.910Z,21.88
2022-10-17T18:23:28.413Z,26.73
2022-10-17T18:24:30.860Z,28.24
2022-10-17T18:25:33.221Z,37.55
2022-10-17T18:26:35.575Z,36.45
2022-10-17T18:27:37.939Z,34.47
2022-10-17T18:29:42.712Z,39.07
2022-10-17T18:30:45.187Z,36.28
2022-10-17T18:31:47.541Z,48.19
2022-10-17T18:32:49.907Z,42.49
2022-10-17T18:33:52.326Z,40.79
2022-10-17T18:34:54.774Z,38.75
2022-10-17T18:35:58.402Z,43.30
2022-10-17T18:37:01.128Z,44.05
2022-10-17T18:38:03.501Z,39.33
2022-10-17T18:39:05.912Z,36.52
2022-10-17T18:40:08.772Z,32.14
2022-10-17T18:41:11.134Z,39.21
2022-10-17T18:42:13.495Z,46.61
2022-10-17T18:43:15.856Z,40.02
2022-10-17T18:44:18.248Z,40.37
2022-10-17T18:45:20.602Z,45.45
2022-10-17T18:46:22.990Z,42.73
2022-10-17T18:47:25.436Z,42.96
2022-10-17T18:48:27.788Z,40.19
2022-10-17T18:49:30.191Z,41.02
2022-10-17T18:50:32.540Z,34.31
2022-10-17T18:51:34.900Z,41.99
2022-10-17T18:52:37.280Z,39.89
2022-10-17T18:53:39.741Z,44.86
2022-10-17T18:54:42.217Z,40.08
2022-10-17T18:56:46.942Z,47.65
2022-10-17T18:57:49.300Z,44.17
2022-10-17T18:58:51.657Z,46.29
2022-10-17T18:59:54.058Z,49.21
2022-10-17T19:00:56.508Z,48.76
2022-10-17T19:01:58.923Z,44.29
2022-10-17T19:03:01.632Z,49.67
2022-10-17T19:04:03.993Z,44.32
2022-10-17T19:05:06.395Z,40.82
2022-10-17T19:06:09.058Z,45.04
2022-10-17T19:07:11.415Z,39.87
2022-10-17T19:08:13.776Z,46.43
2022-10-17T19:09:16.150Z,40.50
2022-10-17T19:10:18.839Z,40.51
2022-10-17T19:11:21.193Z,47.09
2022-10-17T19:12:23.550Z,48.74
2022-10-17T19:13:25.915Z,42.12
2022-10-17T19:14:28.267Z,40.81
2022-10-17T19:15:30.661Z,45.69
2022-10-17T19:16:33.025Z,43.91
2022-10-17T19:17:35.387Z,42.77
2022-10-17T19:18:37.746Z,43.70
2022-10-17T19:19:40.099Z,42.37
2022-10-17T19:20:42.494Z,42.38
2022-10-17T19:21:44.946Z,35.98
2022-10-17T19:22:47.369Z,39.13
2022-10-17T19:23:49.855Z,41.43
2022-10-17T19:24:52.213Z,55.06
2022-10-17T19:25:57.012Z,46.17
2022-10-17T19:26:58.876Z,38.22
2022-10-17T19:28:01.245Z,42.35
2022-10-17T19:29:03.691Z,37.24
2022-10-17T19:30:06.471Z,47.12
2022-10-17T19:31:08.858Z,46.32
2022-10-17T19:32:15.663Z,38.33
2022-10-17T19:33:15.555Z,40.63
2022-10-17T19:34:18.063Z,40.69
2022-10-17T19:35:20.427Z,38.04
2022-10-17T19:36:22.821Z,36.15
2022-10-17T19:37:25.174Z,41.28
2022-10-17T19:38:27.537Z,37.10
2022-10-17T19:39:29.906Z,36.59
2022-10-17T19:40:32.268Z,35.53
2022-10-17T19:41:34.710Z,35.05
2022-10-17T19:42:37.171Z,35.36
2022-10-17T19:43:39.533Z,35.27
2022-10-17T19:44:41.896Z,35.65
2022-10-17T19:45:44.257Z,43.70
2022-10-17T19:46:46.908Z,35.67
2022-10-17T19:47:49.637Z,34.36
2022-10-17T19:48:52.002Z,38.76
2022-10-17T19:49:54.563Z,36.59
2022-10-17T19:50:57.132Z,31.42
2022-10-17T19:51:59.565Z,36.07
2022-10-17T19:53:01.981Z,39.87
2022-10-17T19:54:04.343Z,31.89
2022-10-17T19:55:06.702Z,33.84
2022-10-17T19:56:09.165Z,32.48
2022-10-17T19:57:11.798Z,33.59
2022-10-17T19:58:14.328Z,38.31
2022-10-17T19:59:16.719Z,34.85
2022-10-17T20:00:19.651Z,43.91
2022-10-17T20:01:22.051Z,40.32
2022-10-17T20:02:24.617Z,41.65
2022-10-17T20:03:27.081Z,31.07
2022-10-17T20:04:29.449Z,30.65
2022-10-17T20:05:31.806Z,34.03
2022-10-17T20:06:34.245Z,31.43
2022-10-17T20:07:36.635Z,31.46
2022-10-17T20:08:40.010Z,30.74
2022-10-17T20:09:42.372Z,35.01
2022-10-17T20:10:44.734Z,48.35
2022-10-17T20:11:47.095Z,41.79
2022-10-17T20:12:49.505Z,34.89
2022-10-17T20:13:51.862Z,39.95
2022-10-17T20:14:54.225Z,38.53
2022-10-17T20:15:56.586Z,51.67
2022-10-17T20:16:58.949Z,51.55
2022-10-17T20:18:01.439Z,51.41
2022-10-17T20:19:03.797Z,60.11
2022-10-17T20:20:08.693Z,50.67
2022-10-17T20:21:10.842Z,42.75
2022-10-17T20:22:13.309Z,42.63
2022-10-17T20:23:15.708Z,43.15
2022-10-17T20:24:18.073Z,42.39
2022-10-17T20:25:23.547Z,38.43
2022-10-17T20:26:37.628Z,41.20
2022-10-17T20:27:30.916Z,35.90
2022-10-17T20:28:33.340Z,39.77
2022-10-17T20:29:35.861Z,42.81
2022-10-17T20:30:38.534Z,44.61
2022-10-17T20:31:40.987Z,43.59
2022-10-17T20:32:43.386Z,40.15
2022-10-17T20:33:45.840Z,38.99
2022-10-17T20:34:48.196Z,38.10
2022-10-17T20:35:50.562Z,42.09
2022-10-17T20:36:52.927Z,39.31
2022-10-17T20:37:55.290Z,36.75
2022-10-17T20:38:57.683Z,40.79
2022-10-17T20:40:22.722Z,39.29
2022-10-17T20:41:04.347Z,37.75
2022-10-17T20:42:06.707Z,36.33
2022-10-17T20:43:09.069Z,35.15
2022-10-17T20:44:11.507Z,31.85
2022-10-17T20:45:13.944Z,35.25
2022-10-17T20:46:29.352Z,40.06
2022-10-17T20:47:32.882Z,36.31
2022-10-17T20:48:24.863Z,32.39
2022-10-17T20:49:27.270Z,37.71
2022-10-17T20:50:29.632Z,31.19
2022-10-17T20:51:31.993Z,33.44